createdAt,value
2017-12-21T00:00:38.000Z,24.33
2017-12-21T00:10:38.000Z,24.19
2017-12-21T00:20:38.000Z,24.28
2017-12-21T00:30:38.000Z,24.18
2017-12-21T00:40:38.000Z,24.19
2017-12-21T00:50:38.000Z,24.19
2017-12-21T01:00:38.000Z,24.1
2017-12-21T01:10:38.000Z,24.09
2017-12-21T01:20:38.000Z,24
2017-12-21T01:30:38.000Z,24.04
2017-12-21T01:40:38.000Z,23.99
2017-12-21T01:50:38.000Z,23.92
2017-12-21T02:00:38.000Z,23.9
2017-12-21T02:10:38.000Z,23.87
2017-12-21T02:20:38.000Z,23.91
2017-12-21T02:30:38.000Z,23.83
2017-12-21T02:40:38.000Z,23.83
2017-12-21T02:50:38.000Z,23.81
2017-12-21T03:00:38.000Z,23.72
2017-12-21T03:10:38.000Z,23.73
2017-12-21T03:20:38.000Z,23.71
2017-12-21T03:30:38.000Z,23.71
2017-12-21T03:40:38.000Z,23.66
2017-12-21T03:50:38.000Z,23.61
2017-12-21T04:00:38.000Z,23.54
2017-12-21T04:10:38.000Z,23.55
2017-12-21T04:20:38.000Z,23.51
2017-12-21T04:30:38.000Z,23.49
2017-12-21T04:40:38.000Z,23.46
2017-12-21T04:50:38.000Z,23.43
2017-12-21T05:00:38.000Z,23.42
2017-12-21T05:10:38.000Z,23.4
2017-12-21T05:20:38.000Z,23.4
2017-12-21T05:30:38.000Z,23.34
2017-12-21T05:40:38.000Z,23.4
2017-12-21T05:50:38.000Z,23.4
2017-12-21T06:00:38.000Z,23.43
2017-12-21T06:10:38.000Z,23.39
2017-12-21T06:20:38.000Z,23.41
2017-12-21T06:30:38.000Z,23.43
2017-12-21T06:40:38.000Z,23.47
2017-12-21T06:50:38.000Z,23.46
2017-12-21T07:00:38.000Z,23.43
2017-12-21T07:10:38.000Z,23.5
2017-12-21T07:20:38.000Z,23.5
2017-12-21T07:30:39.000Z,23.49
2017-12-21T07:40:39.000Z,23.53
2017-12-21T07:50:39.000Z,23.53
2017-12-21T08:00:39.000Z,23.56
2017-12-21T08:10:39.000Z,23.61
2017-12-21T08:20:39.000Z,23.63
2017-12-21T08:30:39.000Z,23.61
2017-12-21T08:40:39.000Z,23.69
2017-12-21T08:50:39.000Z,23.72
2017-12-21T09:00:39.000Z,23.76
2017-12-21T09:10:39.000Z,23.76
2017-12-21T09:20:39.000Z,23.78
2017-12-21T09:30:39.000Z,23.81
2017-12-21T09:40:39.000Z,23.81
2017-12-21T09:50:39.000Z,23.79
2017-12-21T10:00:39.000Z,23.84
2017-12-21T10:10:39.000Z,23.87
2017-12-21T10:20:39.000Z,23.85
2017-12-21T10:30:39.000Z,23.85
2017-12-21T10:40:39.000Z,23.91
2017-12-21T10:50:39.000Z,23.87
2017-12-21T11:00:39.000Z,23.92
2017-12-21T11:10:39.000Z,24
2017-12-21T11:20:39.000Z,24.05
2017-12-21T11:30:39.000Z,24.12
2017-12-21T11:40:39.000Z,24.18
2017-12-21T11:50:39.000Z,24.26
2017-12-21T12:00:39.000Z,24.3
2017-12-21T12:10:39.000Z,24.24
2017-12-21T12:20:39.000Z,24.21
2017-12-21T12:30:39.000Z,24.28
2017-12-21T12:40:39.000Z,24.3
2017-12-21T12:50:39.000Z,24.33
2017-12-21T13:00:39.000Z,24.35
2017-12-21T13:10:39.000Z,24.35
2017-12-21T13:20:39.000Z,24.41
2017-12-21T13:30:39.000Z,24.41
2017-12-21T13:40:39.000Z,24.46
2017-12-21T13:50:39.000Z,24.45
2017-12-21T14:00:39.000Z,24.46
2017-12-21T14:10:39.000Z,24.49
2017-12-21T14:20:39.000Z,24.5
2017-12-21T14:30:39.000Z,24.47
2017-12-21T14:40:39.000Z,24.53
2017-12-21T14:50:39.000Z,24.53
2017-12-21T15:00:39.000Z,24.59
2017-12-21T15:10:39.000Z,24.52
2017-12-21T15:20:39.000Z,24.53
2017-12-21T15:30:39.000Z,24.5
2017-12-21T15:40:39.000Z,24.39
2017-12-21T15:50:40.000Z,24.47
2017-12-21T16:00:40.000Z,24.51
2017-12-21T16:10:40.000Z,24.52
2017-12-21T16:20:40.000Z,24.55
2017-12-21T16:30:41.000Z,24.61
2017-12-21T16:40:40.000Z,24.6
2017-12-21T16:50:40.000Z,24.64
2017-12-21T17:00:40.000Z,24.65
2017-12-21T17:10:40.000Z,24.59
2017-12-21T17:20:40.000Z,24.57
2017-12-21T17:30:40.000Z,24.55
2017-12-21T17:40:40.000Z,24.55
2017-12-21T17:50:40.000Z,24.55
2017-12-21T18:00:40.000Z,24.49
2017-12-21T18:10:40.000Z,24.5
2017-12-21T18:20:40.000Z,24.48
2017-12-21T18:30:40.000Z,24.45
2017-12-21T18:40:39.000Z,24.48
2017-12-21T18:50:40.000Z,24.49
2017-12-21T19:00:40.000Z,24.46
2017-12-21T19:10:40.000Z,24.45
2017-12-21T19:20:40.000Z,24.55
2017-12-21T19:30:40.000Z,24.45
2017-12-21T19:40:40.000Z,24.47
2017-12-21T19:50:40.000Z,24.49
2017-12-21T20:00:40.000Z,24.46
2017-12-21T20:10:40.000Z,24.42
2017-12-21T20:20:40.000Z,24.45
2017-12-21T20:30:40.000Z,24.44
2017-12-21T20:40:40.000Z,24.35
2017-12-21T20:50:40.000Z,24.32
2017-12-21T21:00:40.000Z,24.36
2017-12-21T21:10:40.000Z,24.25
2017-12-21T21:20:40.000Z,24.33
2017-12-21T21:30:40.000Z,24.33
2017-12-21T21:40:40.000Z,24.2
2017-12-21T21:50:40.000Z,24.26
2017-12-21T22:00:40.000Z,24.26
2017-12-21T22:10:40.000Z,24.31
2017-12-21T22:20:40.000Z,24.34
2017-12-21T22:30:40.000Z,24.39
2017-12-21T22:40:40.000Z,24.39
2017-12-21T22:50:40.000Z,24.38
2017-12-21T23:00:40.000Z,24.36
2017-12-21T23:10:40.000Z,24.31
2017-12-21T23:20:40.000Z,24.24
2017-12-21T23:30:40.000Z,24.17
2017-12-21T23:40:40.000Z,24.07
2017-12-21T23:50:40.000Z,23.97
